THA24 EDDF-UAAA
Flight info
| Callsign | THA24 |
|---|---|
| Flight time | N/A |
| Altitude | 31000 |
| Route | CINDY8S CINDY Z74 HAREM DCT ASLEP DCT TAKUT DCT DINKU L603 BESNI/N0483F390 L605 MIQ DCT ALUTU DCT BIBAG L605 ESEGA DCT VELOM DCT STEIN DCT SIRDU DCT GITAS DCT TEGRI DCT LUGEB DCT UDROS DCT CRM UM11 REBLO DCT TABAS DCT MATAL T916 LEYLA/N0486F410 T916 BALUN/K0902F410 T916 TUROK L855 TIPSA |
| Aircraft | A359/H-SDE2E3GHIJ3J4J5LM1ORWXY/LB1D1 |
Departure
| Time | 2026-04-16 12:48 |
|---|---|
| Airport | Frankfurt Main Airport (EDDF) |
Arrival
| Time | N/A |
|---|---|
| Airport | Almaty International Airport (UAAA) |
| Time | Latitude | Longitude | Altitude | Speed | Heading |
|---|---|---|---|---|---|
| 2026-04-16 12:29 | 50.03686 | 8.52976 | 348 ft | 0 kts | 340° |
| 2026-04-16 12:41 | 50.03676 | 8.52981 | 358 ft | 4 kts | 340° |
| 2026-04-16 12:41 | 50.03651 | 8.52996 | 355 ft | 4 kts | 339° |
| 2026-04-16 12:41 | 50.03628 | 8.53010 | 347 ft | 2 kts | 339° |
| 2026-04-16 12:42 | 50.03605 | 8.53016 | 357 ft | 4 kts | 26° |
| 2026-04-16 12:42 | 50.03590 | 8.52989 | 357 ft | 4 kts | 69° |
| 2026-04-16 12:42 | 50.03583 | 8.52962 | 357 ft | 1 kts | 70° |
| 2026-04-16 12:42 | 50.03583 | 8.52958 | 346 ft | 0 kts | 70° |
| 2026-04-16 12:45 | 50.03583 | 8.52960 | 349 ft | 2 kts | 69° |
| 2026-04-16 12:45 | 50.03576 | 8.53029 | 356 ft | 10 kts | 129° |
| 2026-04-16 12:45 | 50.03532 | 8.53026 | 354 ft | 9 kts | 211° |
| 2026-04-16 12:46 | 50.03493 | 8.52946 | 343 ft | 11 kts | 246° |
| 2026-04-16 12:46 | 50.03460 | 8.52829 | 351 ft | 13 kts | 246° |
| 2026-04-16 12:46 | 50.03423 | 8.52690 | 353 ft | 15 kts | 249° |
| 2026-04-16 12:46 | 50.03348 | 8.52594 | 345 ft | 14 kts | 189° |
| 2026-04-16 12:47 | 50.03275 | 8.52594 | 352 ft | 0 kts | 179° |
| 2026-04-16 12:47 | 50.03180 | 8.52597 | 346 ft | 44 kts | 179° |
| 2026-04-16 12:47 | 50.02645 | 8.52603 | 348 ft | 107 kts | 180° |
| 2026-04-16 12:48 | 50.01809 | 8.52608 | 336 ft | 155 kts | 179° |
| 2026-04-16 12:48 | 50.00627 | 8.52637 | 666 ft | 174 kts | 180° |
| 2026-04-16 12:48 | 49.99614 | 8.52669 | 1196 ft | 177 kts | 180° |
| 2026-04-16 12:48 | 49.98367 | 8.52752 | 1735 ft | 185 kts | 179° |
| 2026-04-16 12:49 | 49.97019 | 8.52850 | 1951 ft | 203 kts | 179° |
| 2026-04-16 12:49 | 49.95548 | 8.52958 | 2212 ft | 218 kts | 180° |
| 2026-04-16 12:49 | 49.94318 | 8.53047 | 2558 ft | 224 kts | 181° |
| 2026-04-16 12:49 | 49.92966 | 8.53143 | 3117 ft | 221 kts | 182° |
| 2026-04-16 12:50 | 49.91782 | 8.53225 | 3709 ft | 217 kts | 182° |
| 2026-04-16 12:50 | 49.90490 | 8.53311 | 4170 ft | 222 kts | 183° |
| 2026-04-16 12:50 | 49.88922 | 8.53414 | 4697 ft | 229 kts | 183° |
| 2026-04-16 12:50 | 49.87350 | 8.53518 | 5217 ft | 234 kts | 183° |
| 2026-04-16 12:51 | 49.85770 | 8.53622 | 5748 ft | 238 kts | 183° |
| 2026-04-16 12:51 | 49.84237 | 8.53726 | 6230 ft | 243 kts | 183° |
| 2026-04-16 12:51 | 49.83030 | 8.53811 | 6606 ft | 246 kts | 183° |
| 2026-04-16 12:51 | 49.81336 | 8.53952 | 7184 ft | 248 kts | 180° |
| 2026-04-16 12:52 | 49.79980 | 8.54454 | 7628 ft | 258 kts | 160° |
| 2026-04-16 12:52 | 49.78628 | 8.56094 | 8111 ft | 270 kts | 129° |
| 2026-04-16 12:52 | 49.77929 | 8.58651 | 8346 ft | 286 kts | 98° |
| 2026-04-16 12:52 | 49.77788 | 8.61788 | 8640 ft | 299 kts | 90° |
| 2026-04-16 12:53 | 49.77730 | 8.64839 | 9074 ft | 305 kts | 91° |
| 2026-04-16 12:53 | 49.77653 | 8.68134 | 9649 ft | 308 kts | 91° |
| 2026-04-16 12:53 | 49.77558 | 8.71474 | 10194 ft | 312 kts | 91° |
| 2026-04-16 12:53 | 49.77466 | 8.74474 | 10543 ft | 322 kts | 91° |
| 2026-04-16 12:54 | 49.77353 | 8.78009 | 10794 ft | 337 kts | 91° |
| 2026-04-16 12:54 | 49.77237 | 8.81392 | 11014 ft | 351 kts | 91° |
| 2026-04-16 12:54 | 49.77099 | 8.85236 | 11251 ft | 365 kts | 90° |
| 2026-04-16 12:54 | 49.76967 | 8.88970 | 11466 ft | 376 kts | 90° |
| 2026-04-16 12:55 | 49.76819 | 8.93072 | 11690 ft | 388 kts | 90° |
| 2026-04-16 12:55 | 49.76690 | 8.96555 | 11923 ft | 396 kts | 90° |
| 2026-04-16 12:55 | 49.76559 | 9.00037 | 12264 ft | 399 kts | 90° |
| 2026-04-16 12:55 | 49.76399 | 9.04288 | 12715 ft | 402 kts | 90° |
| 2026-04-16 12:56 | 49.76195 | 9.08535 | 13135 ft | 407 kts | 95° |
| 2026-04-16 12:56 | 49.75710 | 9.12443 | 13555 ft | 410 kts | 101° |
| 2026-04-16 12:56 | 49.75011 | 9.16502 | 13958 ft | 414 kts | 107° |
| 2026-04-16 12:56 | 49.73954 | 9.19885 | 14311 ft | 417 kts | 123° |
| 2026-04-16 12:57 | 49.72605 | 9.22831 | 14685 ft | 417 kts | 128° |
| 2026-04-16 12:57 | 49.70806 | 9.26201 | 15082 ft | 420 kts | 131° |
| 2026-04-16 12:57 | 49.68856 | 9.29564 | 15552 ft | 421 kts | 133° |
| 2026-04-16 12:57 | 49.66866 | 9.32908 | 15951 ft | 424 kts | 133° |
| 2026-04-16 12:58 | 49.66051 | 9.34276 | 16130 ft | 425 kts | 133° |
| 2026-04-16 12:58 | 49.63836 | 9.38039 | 16626 ft | 426 kts | 132° |
| 2026-04-16 12:58 | 49.62316 | 9.41255 | 16948 ft | 429 kts | 120° |
| 2026-04-16 12:58 | 49.61348 | 9.44224 | 17257 ft | 430 kts | 113° |
| 2026-04-16 12:59 | 49.60230 | 9.48459 | 17639 ft | 431 kts | 109° |
| 2026-04-16 12:59 | 49.59271 | 9.52680 | 18042 ft | 433 kts | 107° |
| 2026-04-16 12:59 | 49.58618 | 9.55765 | 18308 ft | 434 kts | 107° |
| 2026-04-16 13:00 | 49.56768 | 9.64771 | 19007 ft | 440 kts | 107° |
| 2026-04-16 13:00 | 49.56099 | 9.67989 | 19273 ft | 442 kts | 107° |
| 2026-04-16 13:00 | 49.55206 | 9.72219 | 19616 ft | 443 kts | 107° |
| 2026-04-16 13:00 | 49.54375 | 9.76102 | 19908 ft | 445 kts | 107° |
| 2026-04-16 13:01 | 49.53335 | 9.80548 | 20186 ft | 449 kts | 113° |
| 2026-04-16 13:01 | 49.51829 | 9.84765 | 20509 ft | 451 kts | 124° |
| 2026-04-16 13:01 | 49.50015 | 9.88731 | 20790 ft | 454 kts | 127° |
| 2026-04-16 13:01 | 49.48808 | 9.91157 | 20999 ft | 455 kts | 129° |
| 2026-04-16 13:02 | 49.47925 | 9.92870 | 21144 ft | 456 kts | 129° |
| 2026-04-16 13:02 | 49.45680 | 9.97091 | 21503 ft | 458 kts | 130° |
| 2026-04-16 13:02 | 49.43640 | 10.00868 | 21799 ft | 460 kts | 130° |
| 2026-04-16 13:02 | 49.41873 | 10.04136 | 22014 ft | 463 kts | 130° |
| 2026-04-16 13:03 | 49.39863 | 10.07871 | 22295 ft | 465 kts | 130° |
| 2026-04-16 13:03 | 49.37806 | 10.11712 | 22587 ft | 467 kts | 129° |
| 2026-04-16 13:03 | 49.36444 | 10.14269 | 22776 ft | 468 kts | 129° |
| 2026-04-16 13:03 | 49.35118 | 10.16761 | 22960 ft | 469 kts | 129° |
| 2026-04-16 13:04 | 49.32654 | 10.21388 | 23286 ft | 471 kts | 129° |
| 2026-04-16 13:04 | 49.30610 | 10.25219 | 23559 ft | 473 kts | 129° |
| 2026-04-16 13:04 | 49.28942 | 10.28343 | 23744 ft | 475 kts | 129° |
| 2026-04-16 13:04 | 49.26846 | 10.32264 | 24028 ft | 477 kts | 129° |
| 2026-04-16 13:05 | 49.24928 | 10.35842 | 24285 ft | 477 kts | 129° |
| 2026-04-16 13:05 | 49.23528 | 10.38235 | 24442 ft | 479 kts | 134° |
| 2026-04-16 13:05 | 49.21198 | 10.41902 | 24703 ft | 480 kts | 135° |
| 2026-04-16 13:05 | 49.19050 | 10.45171 | 24925 ft | 482 kts | 136° |
| 2026-04-16 13:06 | 49.16676 | 10.48714 | 25175 ft | 483 kts | 136° |
| 2026-04-16 13:06 | 49.14263 | 10.52280 | 25442 ft | 485 kts | 136° |
| 2026-04-16 13:06 | 49.12460 | 10.54937 | 25619 ft | 486 kts | 136° |
| 2026-04-16 13:06 | 49.10857 | 10.57298 | 25802 ft | 487 kts | 136° |
| 2026-04-16 13:07 | 49.08019 | 10.61479 | 26110 ft | 489 kts | 136° |
| 2026-04-16 13:07 | 49.06455 | 10.63783 | 26285 ft | 490 kts | 136° |
| 2026-04-16 13:07 | 49.04063 | 10.67312 | 26566 ft | 492 kts | 135° |
| 2026-04-16 13:07 | 49.02019 | 10.70331 | 26764 ft | 494 kts | 136° |
| 2026-04-16 13:08 | 48.99670 | 10.73785 | 27014 ft | 495 kts | 136° |
| 2026-04-16 13:08 | 48.97102 | 10.77552 | 27304 ft | 497 kts | 135° |
| 2026-04-16 13:08 | 48.95586 | 10.79771 | 27439 ft | 499 kts | 135° |
| 2026-04-16 13:08 | 48.93305 | 10.83109 | 27688 ft | 500 kts | 135° |
| 2026-04-16 13:09 | 48.91491 | 10.85761 | 27898 ft | 501 kts | 135° |
| 2026-04-16 13:09 | 48.88977 | 10.89447 | 28192 ft | 503 kts | 135° |
| 2026-04-16 13:09 | 48.86449 | 10.93148 | 28454 ft | 505 kts | 135° |
| 2026-04-16 13:09 | 48.84139 | 10.96521 | 28707 ft | 507 kts | 135° |
| 2026-04-16 13:10 | 48.81591 | 11.00237 | 28969 ft | 509 kts | 135° |
| 2026-04-16 13:10 | 48.79026 | 11.03974 | 29232 ft | 512 kts | 135° |
| 2026-04-16 13:10 | 48.77175 | 11.06667 | 29430 ft | 513 kts | 135° |
| 2026-04-16 13:10 | 48.75368 | 11.09297 | 29603 ft | 515 kts | 135° |
| 2026-04-16 13:11 | 48.72908 | 11.12861 | 29850 ft | 517 kts | 135° |
| 2026-04-16 13:11 | 48.70304 | 11.16621 | 30107 ft | 518 kts | 135° |
| 2026-04-16 13:11 | 48.67997 | 11.20011 | 30332 ft | 520 kts | 132° |
| 2026-04-16 13:11 | 48.65680 | 11.24203 | 30544 ft | 520 kts | 123° |
| 2026-04-16 13:12 | 48.63834 | 11.28883 | 30765 ft | 518 kts | 112° |
| 2026-04-16 13:12 | 48.62768 | 11.32751 | 30939 ft | 516 kts | 107° |
| 2026-04-16 13:12 | 48.61608 | 11.37725 | 31177 ft | 517 kts | 105° |
| 2026-04-16 13:13 | 48.60494 | 11.42906 | 31238 ft | 517 kts | 104° |
| 2026-04-16 13:13 | 48.58615 | 11.51996 | 31240 ft | 516 kts | 103° |
| 2026-04-16 13:14 | 48.57134 | 11.59404 | 31241 ft | 514 kts | 99° |
| 2026-04-16 13:14 | 48.55522 | 11.69898 | 31247 ft | 512 kts | 98° |
| 2026-04-16 13:15 | 48.54375 | 11.77798 | 31255 ft | 512 kts | 98° |
| 2026-04-16 13:15 | 48.52882 | 11.88100 | 31257 ft | 511 kts | 98° |
| 2026-04-16 13:16 | 48.51500 | 11.97540 | 31256 ft | 511 kts | 98° |
| 2026-04-16 13:16 | 48.50153 | 12.06652 | 31257 ft | 511 kts | 98° |
| 2026-04-16 13:17 | 48.48796 | 12.15764 | 31256 ft | 510 kts | 98° |
| 2026-04-16 13:17 | 48.47195 | 12.26358 | 31256 ft | 510 kts | 98° |
| 2026-04-16 13:18 | 48.45878 | 12.34998 | 31258 ft | 511 kts | 98° |
| 2026-04-16 13:18 | 48.44539 | 12.43740 | 31255 ft | 511 kts | 98° |
| 2026-04-16 13:19 | 48.43331 | 12.51604 | 31256 ft | 511 kts | 98° |
| 2026-04-16 13:19 | 48.41986 | 12.60326 | 31256 ft | 511 kts | 98° |
| 2026-04-16 13:20 | 48.40369 | 12.70746 | 31259 ft | 512 kts | 98° |
| 2026-04-16 13:20 | 48.39461 | 12.75783 | 31260 ft | 515 kts | 103° |
| 2026-04-16 13:21 | 48.37182 | 12.86011 | 31264 ft | 516 kts | 104° |
| 2026-04-16 13:21 | 48.35076 | 12.95051 | 31273 ft | 516 kts | 104° |
| 2026-04-16 13:22 | 48.33228 | 13.02917 | 31278 ft | 516 kts | 104° |
| 2026-04-16 13:22 | 48.31388 | 13.10739 | 31276 ft | 516 kts | 104° |
| 2026-04-16 13:23 | 48.29404 | 13.19174 | 31278 ft | 515 kts | 104° |
| 2026-04-16 13:23 | 48.27789 | 13.26050 | 31277 ft | 515 kts | 104° |
| 2026-04-16 13:24 | 48.25377 | 13.36239 | 31266 ft | 514 kts | 104° |
| 2026-04-16 13:24 | 48.23664 | 13.43443 | 31265 ft | 514 kts | 104° |
| 2026-04-16 13:25 | 48.22582 | 13.47980 | 31267 ft | 513 kts | 104° |
| 2026-04-16 13:25 | 48.20194 | 13.57981 | 31265 ft | 513 kts | 104° |
| 2026-04-16 13:26 | 48.17973 | 13.67223 | 31265 ft | 512 kts | 104° |
| 2026-04-16 13:26 | 48.16350 | 13.73951 | 31266 ft | 512 kts | 104° |
| 2026-04-16 13:27 | 48.14696 | 13.80789 | 31266 ft | 511 kts | 104° |
| 2026-04-16 13:27 | 48.12297 | 13.90675 | 31265 ft | 511 kts | 104° |
| 2026-04-16 13:28 | 48.10473 | 13.98159 | 31263 ft | 511 kts | 104° |
| 2026-04-16 13:28 | 48.08035 | 14.08130 | 31267 ft | 510 kts | 104° |
| 2026-04-16 13:29 | 48.06450 | 14.14590 | 31265 ft | 511 kts | 104° |
| 2026-04-16 13:29 | 48.04115 | 14.24067 | 31268 ft | 510 kts | 104° |
| 2026-04-16 13:30 | 48.01723 | 14.33734 | 31266 ft | 511 kts | 104° |
| 2026-04-16 13:30 | 47.99464 | 14.42836 | 31254 ft | 511 kts | 104° |
| 2026-04-16 13:31 | 47.97594 | 14.50330 | 31258 ft | 511 kts | 104° |
| 2026-04-16 13:31 | 47.95207 | 14.59856 | 31250 ft | 509 kts | 104° |
| 2026-04-16 13:32 | 47.92945 | 14.68856 | 31249 ft | 508 kts | 104° |
| 2026-04-16 13:32 | 47.90569 | 14.78269 | 31247 ft | 507 kts | 104° |
| 2026-04-16 13:33 | 47.88456 | 14.86610 | 31234 ft | 508 kts | 104° |
| 2026-04-16 13:33 | 47.86005 | 14.96253 | 31228 ft | 507 kts | 104° |
| 2026-04-16 13:34 | 47.83614 | 15.05621 | 31226 ft | 507 kts | 104° |
| 2026-04-16 13:34 | 47.81502 | 15.13851 | 31244 ft | 504 kts | 104° |
| 2026-04-16 13:35 | 47.79093 | 15.23218 | 31219 ft | 506 kts | 104° |
| 2026-04-16 13:35 | 47.76707 | 15.32446 | 31220 ft | 506 kts | 104° |
| 2026-04-16 13:36 | 47.74278 | 15.41805 | 31212 ft | 507 kts | 104° |
| 2026-04-16 13:36 | 47.71934 | 15.50804 | 31211 ft | 507 kts | 104° |
| 2026-04-16 13:37 | 47.70107 | 15.57796 | 31207 ft | 507 kts | 104° |
| 2026-04-16 13:37 | 47.67547 | 15.67556 | 31201 ft | 507 kts | 104° |
| 2026-04-16 13:38 | 47.65068 | 15.76970 | 31200 ft | 508 kts | 104° |
| 2026-04-16 13:38 | 47.62737 | 15.85785 | 31201 ft | 508 kts | 104° |
| 2026-04-16 13:39 | 47.60651 | 15.93649 | 31209 ft | 509 kts | 104° |
| 2026-04-16 13:39 | 47.58357 | 16.02259 | 31201 ft | 509 kts | 104° |
| 2026-04-16 13:40 | 47.55770 | 16.11919 | 31202 ft | 508 kts | 105° |
| 2026-04-16 13:40 | 47.53393 | 16.20772 | 31193 ft | 507 kts | 105° |
| 2026-04-16 13:41 | 47.51173 | 16.29008 | 31191 ft | 507 kts | 105° |
| 2026-04-16 13:41 | 47.48587 | 16.38565 | 31193 ft | 506 kts | 105° |
| 2026-04-16 13:42 | 47.46047 | 16.47913 | 31193 ft | 505 kts | 105° |
| 2026-04-16 13:42 | 47.43899 | 16.55791 | 31192 ft | 504 kts | 105° |
| 2026-04-16 13:43 | 47.41340 | 16.65413 | 31192 ft | 501 kts | 103° |
| 2026-04-16 13:43 | 47.39473 | 16.73499 | 31192 ft | 498 kts | 101° |
| 2026-04-16 13:44 | 47.37431 | 16.82601 | 31193 ft | 498 kts | 102° |
| 2026-04-16 13:44 | 47.35415 | 16.91374 | 31193 ft | 497 kts | 102° |
| 2026-04-16 13:45 | 47.33760 | 16.98424 | 31189 ft | 496 kts | 102° |
| 2026-04-16 13:45 | 47.31454 | 17.08151 | 31183 ft | 496 kts | 103° |
| 2026-04-16 13:46 | 47.29313 | 17.17142 | 31183 ft | 496 kts | 103° |
| 2026-04-16 13:46 | 47.27266 | 17.25712 | 31182 ft | 495 kts | 103° |
| 2026-04-16 13:47 | 47.25652 | 17.32450 | 31185 ft | 495 kts | 103° |
| 2026-04-16 13:47 | 47.23467 | 17.41651 | 31184 ft | 494 kts | 102° |
| 2026-04-16 13:48 | 47.22279 | 17.46754 | 31185 ft | 494 kts | 102° |
| 2026-04-16 13:48 | 47.20052 | 17.56312 | 31185 ft | 494 kts | 102° |
| 2026-04-16 13:49 | 47.18535 | 17.62778 | 31186 ft | 494 kts | 103° |
| 2026-04-16 13:49 | 47.17623 | 17.66649 | 31182 ft | 494 kts | 103° |
| 2026-04-16 13:50 | 47.16198 | 17.72671 | 31185 ft | 494 kts | 103° |
| 2026-04-16 13:50 | 47.14136 | 17.81341 | 31182 ft | 493 kts | 103° |
| 2026-04-16 13:51 | 47.13078 | 17.85779 | 31183 ft | 493 kts | 103° |
| 2026-04-16 13:51 | 47.12111 | 17.89829 | 31183 ft | 493 kts | 103° |
| 2026-04-16 13:52 | 47.10374 | 17.97082 | 31184 ft | 493 kts | 103° |
| 2026-04-16 13:52 | 47.08298 | 18.05722 | 31181 ft | 492 kts | 103° |
| 2026-04-16 13:53 | 47.06634 | 18.12612 | 31182 ft | 491 kts | 103° |
| 2026-04-16 13:53 | 47.05010 | 18.19321 | 31175 ft | 491 kts | 103° |
| 2026-04-16 13:54 | 47.03049 | 18.27150 | 31176 ft | 492 kts | 104° |
| 2026-04-16 13:54 | 47.01052 | 18.34892 | 31172 ft | 492 kts | 105° |
| 2026-04-16 13:55 | 46.99433 | 18.41149 | 31177 ft | 491 kts | 105° |
| 2026-04-16 13:55 | 46.97019 | 18.50503 | 31161 ft | 491 kts | 105° |
| 2026-04-16 13:56 | 46.95934 | 18.54708 | 31163 ft | 491 kts | 105° |
| 2026-04-16 13:56 | 46.94203 | 18.61406 | 31167 ft | 491 kts | 105° |
| 2026-04-16 13:57 | 46.91838 | 18.70535 | 31165 ft | 491 kts | 105° |
| 2026-04-16 13:57 | 46.90612 | 18.75253 | 31173 ft | 491 kts | 105° |
| 2026-04-16 13:58 | 46.87874 | 18.85762 | 31170 ft | 491 kts | 105° |
| 2026-04-16 13:58 | 46.85505 | 18.94809 | 31167 ft | 491 kts | 105° |
| 2026-04-16 13:59 | 46.83562 | 19.02209 | 31162 ft | 491 kts | 105° |
| 2026-04-16 13:59 | 46.82365 | 19.06752 | 31161 ft | 492 kts | 105° |
| 2026-04-16 14:00 | 46.80085 | 19.15379 | 31166 ft | 490 kts | 105° |
| 2026-04-16 14:00 | 46.78077 | 19.22955 | 31166 ft | 491 kts | 105° |
| 2026-04-16 14:01 | 46.75839 | 19.31371 | 31157 ft | 490 kts | 106° |
| 2026-04-16 14:01 | 46.73393 | 19.40538 | 31152 ft | 490 kts | 106° |
| 2026-04-16 14:02 | 46.70996 | 19.49477 | 31148 ft | 490 kts | 106° |
| 2026-04-16 14:02 | 46.69905 | 19.53535 | 31161 ft | 490 kts | 106° |
| 2026-04-16 14:03 | 46.67804 | 19.61332 | 31152 ft | 489 kts | 106° |
| 2026-04-16 14:03 | 46.65497 | 19.69859 | 31153 ft | 489 kts | 106° |
| 2026-04-16 14:04 | 46.63362 | 19.77731 | 31156 ft | 489 kts | 106° |
| 2026-04-16 14:04 | 46.61014 | 19.86356 | 31163 ft | 488 kts | 106° |
| 2026-04-16 14:05 | 46.58807 | 19.94442 | 31158 ft | 488 kts | 107° |
| 2026-04-16 14:05 | 46.56462 | 20.02996 | 31142 ft | 487 kts | 107° |
| 2026-04-16 14:06 | 46.54064 | 20.11711 | 31147 ft | 487 kts | 107° |
| 2026-04-16 14:06 | 46.51541 | 20.20847 | 31149 ft | 488 kts | 107° |
| 2026-04-16 14:07 | 46.49509 | 20.28179 | 31143 ft | 488 kts | 107° |
| 2026-04-16 14:07 | 46.47088 | 20.36880 | 31145 ft | 487 kts | 107° |
| 2026-04-16 14:08 | 46.44574 | 20.45887 | 31144 ft | 487 kts | 107° |
| 2026-04-16 14:08 | 46.42283 | 20.54073 | 31145 ft | 488 kts | 107° |
| 2026-04-16 14:09 | 46.39818 | 20.62846 | 31147 ft | 489 kts | 108° |
| 2026-04-16 14:09 | 46.37326 | 20.71678 | 31151 ft | 488 kts | 108° |
| 2026-04-16 14:10 | 46.34970 | 20.80001 | 31145 ft | 489 kts | 108° |
| 2026-04-16 14:10 | 46.32383 | 20.89108 | 31151 ft | 489 kts | 108° |
| 2026-04-16 14:11 | 46.29863 | 20.97949 | 31148 ft | 489 kts | 108° |
| 2026-04-16 14:11 | 46.27257 | 21.07048 | 31160 ft | 490 kts | 109° |
| 2026-04-16 14:12 | 46.24637 | 21.16130 | 31158 ft | 490 kts | 109° |
| 2026-04-16 14:12 | 46.21942 | 21.25181 | 31158 ft | 491 kts | 110° |
| 2026-04-16 14:13 | 46.19230 | 21.34227 | 31149 ft | 491 kts | 110° |
| 2026-04-16 14:13 | 46.16522 | 21.43263 | 31153 ft | 491 kts | 110° |
| 2026-04-16 14:14 | 46.13812 | 21.52294 | 31165 ft | 490 kts | 111° |
| 2026-04-16 14:14 | 46.11096 | 21.61318 | 31164 ft | 491 kts | 111° |
| 2026-04-16 14:15 | 46.08377 | 21.70324 | 31144 ft | 490 kts | 111° |
| 2026-04-16 14:15 | 46.05647 | 21.79325 | 31146 ft | 490 kts | 111° |
| 2026-04-16 14:16 | 46.02913 | 21.88315 | 31148 ft | 490 kts | 111° |
| 2026-04-16 14:16 | 46.00174 | 21.97294 | 31140 ft | 491 kts | 111° |
| 2026-04-16 14:17 | 45.97424 | 22.06268 | 31142 ft | 490 kts | 111° |
| 2026-04-16 14:17 | 45.94668 | 22.15223 | 31134 ft | 490 kts | 111° |
| 2026-04-16 14:18 | 45.91904 | 22.24176 | 31141 ft | 490 kts | 111° |
| 2026-04-16 14:18 | 45.89132 | 22.33127 | 31130 ft | 490 kts | 112° |
| 2026-04-16 14:19 | 45.86480 | 22.41665 | 31129 ft | 490 kts | 112° |
| 2026-04-16 14:19 | 45.83700 | 22.50584 | 31128 ft | 490 kts | 112° |
| 2026-04-16 14:20 | 45.80909 | 22.59506 | 31124 ft | 490 kts | 112° |
| 2026-04-16 14:20 | 45.78125 | 22.68359 | 31119 ft | 489 kts | 112° |
| 2026-04-16 14:21 | 45.75353 | 22.77160 | 31119 ft | 490 kts | 112° |
| 2026-04-16 14:21 | 45.72522 | 22.86121 | 31119 ft | 490 kts | 112° |
| 2026-04-16 14:22 | 45.69759 | 22.94834 | 31117 ft | 490 kts | 112° |
| 2026-04-16 14:22 | 45.66940 | 23.03695 | 31118 ft | 489 kts | 112° |
| 2026-04-16 14:23 | 45.64129 | 23.12491 | 31108 ft | 489 kts | 112° |
| 2026-04-16 14:23 | 45.61296 | 23.21326 | 31109 ft | 489 kts | 113° |
| 2026-04-16 14:24 | 45.58435 | 23.30216 | 31098 ft | 489 kts | 113° |
| 2026-04-16 14:24 | 45.55590 | 23.39033 | 31098 ft | 489 kts | 113° |
| 2026-04-16 14:25 | 45.52759 | 23.47776 | 31103 ft | 489 kts | 113° |
| 2026-04-16 14:25 | 45.49912 | 23.56539 | 31099 ft | 489 kts | 113° |
| 2026-04-16 14:26 | 45.47049 | 23.65323 | 31098 ft | 489 kts | 113° |
| 2026-04-16 14:26 | 45.44180 | 23.74096 | 31104 ft | 489 kts | 113° |
| 2026-04-16 14:27 | 45.41300 | 23.82869 | 31101 ft | 489 kts | 113° |
| 2026-04-16 14:27 | 45.38448 | 23.91531 | 31097 ft | 489 kts | 113° |
| 2026-04-16 14:28 | 45.35555 | 24.00280 | 31094 ft | 488 kts | 113° |
| 2026-04-16 14:28 | 45.32661 | 24.09015 | 31089 ft | 489 kts | 114° |
| 2026-04-16 14:29 | 45.29760 | 24.17739 | 31092 ft | 488 kts | 114° |
| 2026-04-16 14:29 | 45.26860 | 24.26436 | 31087 ft | 488 kts | 114° |
| 2026-04-16 14:30 | 45.23968 | 24.35080 | 31086 ft | 488 kts | 114° |
| 2026-04-16 14:30 | 45.21080 | 24.43674 | 31094 ft | 488 kts | 114° |
| 2026-04-16 14:31 | 45.18155 | 24.52346 | 31077 ft | 488 kts | 114° |
| 2026-04-16 14:31 | 45.15236 | 24.60987 | 31088 ft | 487 kts | 114° |
| 2026-04-16 14:32 | 45.12301 | 24.69635 | 31088 ft | 487 kts | 114° |
| 2026-04-16 14:32 | 45.09356 | 24.78287 | 31074 ft | 488 kts | 114° |
| 2026-04-16 14:33 | 45.06521 | 24.86591 | 31077 ft | 487 kts | 115° |
| 2026-04-16 14:33 | 45.03664 | 24.94936 | 31079 ft | 487 kts | 115° |
| 2026-04-16 14:34 | 45.00707 | 25.03548 | 31079 ft | 487 kts | 115° |
| 2026-04-16 14:34 | 44.97744 | 25.12146 | 31081 ft | 487 kts | 115° |
| 2026-04-16 14:35 | 44.94780 | 25.20726 | 31079 ft | 487 kts | 115° |
| 2026-04-16 14:35 | 44.91803 | 25.29308 | 31073 ft | 487 kts | 115° |
| 2026-04-16 14:36 | 44.88819 | 25.37882 | 31053 ft | 487 kts | 115° |
| 2026-04-16 14:36 | 44.86050 | 25.45818 | 31067 ft | 487 kts | 115° |
| 2026-04-16 14:37 | 44.83128 | 25.54159 | 31065 ft | 487 kts | 115° |
| 2026-04-16 14:37 | 44.80126 | 25.62706 | 31050 ft | 487 kts | 115° |
| 2026-04-16 14:38 | 44.77476 | 25.70227 | 31053 ft | 487 kts | 115° |
| 2026-04-16 14:38 | 44.74463 | 25.78762 | 31053 ft | 487 kts | 115° |
| 2026-04-16 14:39 | 44.71662 | 25.86665 | 31053 ft | 487 kts | 115° |
| 2026-04-16 14:39 | 44.68658 | 25.95114 | 31046 ft | 487 kts | 116° |
| 2026-04-16 14:40 | 44.65631 | 26.03607 | 31045 ft | 487 kts | 116° |
| 2026-04-16 14:40 | 44.62597 | 26.12091 | 31046 ft | 486 kts | 116° |
| 2026-04-16 14:41 | 44.59553 | 26.20573 | 31044 ft | 486 kts | 116° |
| 2026-04-16 14:41 | 44.56505 | 26.29044 | 31045 ft | 487 kts | 116° |
| 2026-04-16 14:42 | 44.53502 | 26.37363 | 31045 ft | 486 kts | 116° |
| 2026-04-16 14:42 | 44.50441 | 26.45816 | 31045 ft | 486 kts | 116° |
| 2026-04-16 14:43 | 44.47378 | 26.54250 | 31045 ft | 486 kts | 116° |
| 2026-04-16 14:43 | 44.44347 | 26.62571 | 31045 ft | 486 kts | 116° |
| 2026-04-16 14:44 | 44.41271 | 26.70987 | 31046 ft | 486 kts | 116° |
| 2026-04-16 14:44 | 44.38212 | 26.79335 | 31045 ft | 486 kts | 116° |
| 2026-04-16 14:45 | 44.35111 | 26.87771 | 31044 ft | 486 kts | 116° |
| 2026-04-16 14:45 | 44.32023 | 26.96147 | 31036 ft | 485 kts | 117° |
| 2026-04-16 14:46 | 44.28947 | 27.04458 | 31036 ft | 484 kts | 117° |
| 2026-04-16 14:46 | 44.25848 | 27.12807 | 31036 ft | 485 kts | 117° |
| 2026-04-16 14:47 | 44.22746 | 27.21145 | 31036 ft | 485 kts | 117° |
| 2026-04-16 14:47 | 44.19636 | 27.29479 | 31027 ft | 484 kts | 117° |
| 2026-04-16 14:48 | 44.16545 | 27.37734 | 31027 ft | 484 kts | 117° |
| 2026-04-16 14:48 | 44.13422 | 27.46052 | 31026 ft | 484 kts | 117° |
| 2026-04-16 14:49 | 44.10869 | 27.52836 | 31026 ft | 484 kts | 117° |
| 2026-04-16 14:49 | 44.07236 | 27.62448 | 31026 ft | 484 kts | 117° |
| 2026-04-16 14:50 | 44.04630 | 27.69330 | 31019 ft | 483 kts | 117° |
| 2026-04-16 14:50 | 44.01531 | 27.77497 | 31017 ft | 483 kts | 117° |
| 2026-04-16 14:51 | 43.98507 | 27.85439 | 31017 ft | 483 kts | 117° |
| 2026-04-16 14:51 | 43.95356 | 27.93683 | 31017 ft | 484 kts | 117° |
| 2026-04-16 14:53 | 43.82950 | 28.25928 | 31009 ft | 483 kts | 118° |
| 2026-04-16 14:54 | 43.79775 | 28.34126 | 31008 ft | 483 kts | 118° |
| 2026-04-16 14:54 | 43.76592 | 28.42317 | 31008 ft | 484 kts | 118° |
| 2026-04-16 14:55 | 43.73399 | 28.50508 | 31008 ft | 484 kts | 118° |
| 2026-04-16 14:55 | 43.69941 | 28.58492 | 31008 ft | 484 kts | 123° |
| 2026-04-16 14:56 | 43.66231 | 28.66258 | 31008 ft | 484 kts | 123° |
| 2026-04-16 14:56 | 43.62570 | 28.73977 | 31008 ft | 484 kts | 123° |
| 2026-04-16 14:57 | 43.58933 | 28.81774 | 31009 ft | 483 kts | 123° |
| 2026-04-16 14:57 | 43.55308 | 28.89582 | 31008 ft | 483 kts | 123° |
| 2026-04-16 14:58 | 43.49872 | 29.01258 | 31001 ft | 482 kts | 123° |
| 2026-04-16 14:59 | 43.46240 | 29.09026 | 31000 ft | 482 kts | 123° |
| 2026-04-16 14:59 | 43.42602 | 29.16783 | 31002 ft | 482 kts | 123° |
| 2026-04-16 15:00 | 43.38962 | 29.24523 | 31003 ft | 482 kts | 123° |
| 2026-04-16 15:00 | 43.35325 | 29.32240 | 30999 ft | 482 kts | 123° |
| 2026-04-16 15:01 | 43.31673 | 29.39967 | 30994 ft | 482 kts | 123° |
| 2026-04-16 15:01 | 43.28021 | 29.47673 | 30998 ft | 481 kts | 123° |
| 2026-04-16 15:02 | 43.24368 | 29.55361 | 30996 ft | 481 kts | 123° |
| 2026-04-16 15:02 | 43.20705 | 29.63052 | 31002 ft | 481 kts | 123° |
| 2026-04-16 15:03 | 43.17039 | 29.70723 | 30996 ft | 481 kts | 123° |
| 2026-04-16 15:03 | 43.13365 | 29.78399 | 30994 ft | 482 kts | 123° |
| 2026-04-16 15:04 | 43.09686 | 29.86063 | 30989 ft | 482 kts | 124° |
| 2026-04-16 15:04 | 43.05994 | 29.93732 | 30990 ft | 483 kts | 124° |
| 2026-04-16 15:05 | 43.02298 | 30.01384 | 30989 ft | 483 kts | 124° |
| 2026-04-16 15:05 | 42.98592 | 30.09049 | 30989 ft | 484 kts | 124° |
| 2026-04-16 15:06 | 42.94873 | 30.16719 | 30989 ft | 485 kts | 124° |
| 2026-04-16 15:06 | 42.91170 | 30.24334 | 30995 ft | 486 kts | 124° |
| 2026-04-16 15:07 | 42.87425 | 30.32012 | 30980 ft | 486 kts | 124° |
| 2026-04-16 15:07 | 42.83676 | 30.39681 | 30971 ft | 486 kts | 124° |
| 2026-04-16 15:08 | 42.79919 | 30.47346 | 30971 ft | 487 kts | 124° |
| 2026-04-16 15:08 | 42.76154 | 30.55011 | 30971 ft | 487 kts | 124° |
| 2026-04-16 15:09 | 42.73159 | 30.63272 | 30974 ft | 489 kts | 109° |
| 2026-04-16 15:09 | 42.71104 | 30.72086 | 30970 ft | 489 kts | 107° |
| 2026-04-16 15:10 | 42.69207 | 30.80947 | 30971 ft | 489 kts | 106° |
| 2026-04-16 15:10 | 42.67298 | 30.89833 | 30971 ft | 489 kts | 107° |
| 2026-04-16 15:11 | 42.65360 | 30.98705 | 30970 ft | 491 kts | 107° |
| 2026-04-16 15:11 | 42.63398 | 31.07585 | 30971 ft | 491 kts | 107° |
| 2026-04-16 15:12 | 42.61425 | 31.16470 | 30971 ft | 491 kts | 107° |
| 2026-04-16 15:12 | 42.59447 | 31.25359 | 30971 ft | 492 kts | 107° |
| 2026-04-16 15:13 | 42.57460 | 31.34247 | 30964 ft | 493 kts | 107° |
| 2026-04-16 15:13 | 42.55459 | 31.43159 | 30962 ft | 494 kts | 107° |
| 2026-04-16 15:14 | 42.53455 | 31.52059 | 30962 ft | 494 kts | 107° |
| 2026-04-16 15:14 | 42.51434 | 31.60980 | 30962 ft | 496 kts | 107° |
| 2026-04-16 15:15 | 42.49401 | 31.69918 | 30961 ft | 496 kts | 107° |
| 2026-04-16 15:15 | 42.47362 | 31.78856 | 30962 ft | 497 kts | 107° |
| 2026-04-16 15:16 | 42.45313 | 31.87805 | 30962 ft | 498 kts | 107° |
| 2026-04-16 15:16 | 42.43254 | 31.96757 | 30961 ft | 499 kts | 107° |
| 2026-04-16 15:17 | 42.41185 | 32.05719 | 30962 ft | 499 kts | 107° |
| 2026-04-16 15:17 | 42.39123 | 32.14622 | 30961 ft | 497 kts | 108° |
| 2026-04-16 15:18 | 42.37029 | 32.23550 | 30961 ft | 499 kts | 107° |
| 2026-04-16 15:18 | 42.34928 | 32.32561 | 30961 ft | 499 kts | 107° |
| 2026-04-16 15:19 | 42.32836 | 32.41501 | 30962 ft | 499 kts | 107° |
| 2026-04-16 15:19 | 42.30735 | 32.50430 | 30962 ft | 498 kts | 108° |
| 2026-04-16 15:20 | 42.28641 | 32.59281 | 30962 ft | 498 kts | 108° |
| 2026-04-16 15:20 | 42.26530 | 32.68173 | 30962 ft | 497 kts | 108° |
| 2026-04-16 15:21 | 42.24416 | 32.77037 | 30952 ft | 496 kts | 108° |
| 2026-04-16 15:21 | 42.22298 | 32.85885 | 30953 ft | 495 kts | 108° |
| 2026-04-16 15:22 | 42.20175 | 32.94720 | 30952 ft | 495 kts | 108° |
| 2026-04-16 15:22 | 42.18047 | 33.03542 | 30953 ft | 494 kts | 108° |
| 2026-04-16 15:23 | 42.15919 | 33.12338 | 30953 ft | 493 kts | 108° |
| 2026-04-16 15:23 | 42.13785 | 33.21125 | 30940 ft | 493 kts | 108° |
| 2026-04-16 15:24 | 42.11643 | 33.29904 | 30940 ft | 492 kts | 108° |
| 2026-04-16 15:24 | 42.09501 | 33.38654 | 30936 ft | 492 kts | 108° |
| 2026-04-16 15:25 | 42.07352 | 33.47391 | 30946 ft | 492 kts | 108° |
| 2026-04-16 15:25 | 42.05198 | 33.56125 | 30940 ft | 491 kts | 108° |
| 2026-04-16 15:26 | 42.03038 | 33.64846 | 30942 ft | 491 kts | 108° |
| 2026-04-16 15:26 | 42.00873 | 33.73554 | 30931 ft | 490 kts | 109° |
| 2026-04-16 15:27 | 41.98706 | 33.82246 | 30934 ft | 490 kts | 109° |
| 2026-04-16 15:27 | 41.96528 | 33.90929 | 30917 ft | 491 kts | 109° |
| 2026-04-16 15:28 | 41.94344 | 33.99620 | 30917 ft | 491 kts | 109° |
| 2026-04-16 15:28 | 41.92154 | 34.08305 | 30915 ft | 491 kts | 109° |
| 2026-04-16 15:29 | 41.89958 | 34.16982 | 30915 ft | 491 kts | 109° |
| 2026-04-16 15:29 | 41.87755 | 34.25647 | 30914 ft | 491 kts | 109° |
| 2026-04-16 15:30 | 41.85544 | 34.34314 | 30916 ft | 491 kts | 109° |
| 2026-04-16 15:30 | 41.83327 | 34.42978 | 30916 ft | 492 kts | 109° |
| 2026-04-16 15:31 | 41.81113 | 34.51597 | 30915 ft | 492 kts | 109° |
| 2026-04-16 15:31 | 41.78864 | 34.60319 | 30916 ft | 493 kts | 109° |
| 2026-04-16 15:32 | 41.76613 | 34.69017 | 30913 ft | 495 kts | 109° |
| 2026-04-16 15:32 | 41.74365 | 34.77670 | 30916 ft | 496 kts | 109° |
| 2026-04-16 15:33 | 41.72094 | 34.86387 | 30917 ft | 497 kts | 109° |
| 2026-04-16 15:33 | 41.69811 | 34.95113 | 30916 ft | 497 kts | 109° |
| 2026-04-16 15:34 | 41.67519 | 35.03837 | 30915 ft | 497 kts | 110° |
| 2026-04-16 15:34 | 41.65217 | 35.12573 | 30916 ft | 498 kts | 110° |
| 2026-04-16 15:35 | 41.62907 | 35.21307 | 30914 ft | 498 kts | 110° |
| 2026-04-16 15:35 | 41.60592 | 35.30033 | 30917 ft | 499 kts | 110° |
| 2026-04-16 15:36 | 41.58659 | 35.37298 | 30917 ft | 499 kts | 110° |
| 2026-04-16 15:36 | 41.55931 | 35.47507 | 30917 ft | 499 kts | 110° |
| 2026-04-16 15:37 | 41.53594 | 35.56221 | 30919 ft | 499 kts | 110° |
| 2026-04-16 15:37 | 41.51642 | 35.63472 | 30908 ft | 499 kts | 110° |
| 2026-04-16 15:38 | 41.49293 | 35.72172 | 30907 ft | 499 kts | 110° |
| 2026-04-16 15:38 | 41.46932 | 35.80889 | 30906 ft | 500 kts | 110° |
| 2026-04-16 15:39 | 41.44564 | 35.89604 | 30905 ft | 500 kts | 110° |
| 2026-04-16 15:39 | 41.42189 | 35.98306 | 30908 ft | 500 kts | 110° |
| 2026-04-16 15:40 | 41.39846 | 36.06871 | 30905 ft | 500 kts | 110° |
| 2026-04-16 15:40 | 41.37454 | 36.15576 | 30906 ft | 500 kts | 110° |
| 2026-04-16 15:41 | 41.35055 | 36.24272 | 30915 ft | 501 kts | 110° |
| 2026-04-16 15:41 | 41.32651 | 36.32963 | 30917 ft | 500 kts | 111° |
| 2026-04-16 15:42 | 41.30242 | 36.41645 | 30917 ft | 501 kts | 111° |
| 2026-04-16 15:42 | 41.27829 | 36.50321 | 30917 ft | 501 kts | 111° |
| 2026-04-16 15:43 | 41.26258 | 36.59344 | 30918 ft | 502 kts | 97° |
| 2026-04-16 15:43 | 41.25489 | 36.68556 | 30915 ft | 502 kts | 95° |
| 2026-04-16 15:44 | 41.24835 | 36.77790 | 30915 ft | 502 kts | 95° |
| 2026-04-16 15:44 | 41.24170 | 36.87027 | 30907 ft | 502 kts | 96° |
| 2026-04-16 15:45 | 41.23478 | 36.96262 | 30906 ft | 502 kts | 96° |
| 2026-04-16 15:45 | 41.22771 | 37.05490 | 30915 ft | 502 kts | 96° |
| 2026-04-16 15:46 | 41.22056 | 37.14721 | 30915 ft | 503 kts | 96° |
| 2026-04-16 15:46 | 41.21334 | 37.23952 | 30915 ft | 503 kts | 96° |
| 2026-04-16 15:47 | 41.20647 | 37.33194 | 30915 ft | 502 kts | 96° |
| 2026-04-16 15:47 | 41.19973 | 37.42419 | 30916 ft | 502 kts | 96° |
| 2026-04-16 15:48 | 41.19290 | 37.51636 | 30915 ft | 502 kts | 96° |
| 2026-04-16 15:48 | 41.18641 | 37.60869 | 30915 ft | 502 kts | 94° |
| 2026-04-16 15:49 | 41.18070 | 37.70102 | 30916 ft | 502 kts | 96° |
| 2026-04-16 15:49 | 41.17280 | 37.79297 | 30916 ft | 501 kts | 97° |
| 2026-04-16 15:50 | 41.16456 | 37.88473 | 30915 ft | 501 kts | 97° |
| 2026-04-16 15:50 | 41.15680 | 37.97659 | 30916 ft | 501 kts | 96° |
| 2026-04-16 15:51 | 41.14955 | 38.06844 | 30915 ft | 501 kts | 96° |
| 2026-04-16 15:51 | 41.14223 | 38.16048 | 30915 ft | 502 kts | 96° |
| 2026-04-16 15:52 | 41.13473 | 38.25259 | 30915 ft | 502 kts | 96° |
| 2026-04-16 15:52 | 41.12715 | 38.34459 | 30915 ft | 502 kts | 96° |
| 2026-04-16 15:53 | 41.11955 | 38.43648 | 30915 ft | 501 kts | 96° |
| 2026-04-16 15:53 | 41.11188 | 38.52835 | 30915 ft | 501 kts | 96° |
| 2026-04-16 15:54 | 41.10412 | 38.62020 | 30915 ft | 501 kts | 96° |
| 2026-04-16 15:54 | 41.09623 | 38.71190 | 30922 ft | 501 kts | 97° |
| 2026-04-16 15:55 | 41.08803 | 38.80354 | 30921 ft | 501 kts | 97° |
| 2026-04-16 15:55 | 41.07967 | 38.89458 | 30921 ft | 501 kts | 97° |
| 2026-04-16 15:56 | 41.07118 | 38.98691 | 30922 ft | 501 kts | 97° |
| 2026-04-16 15:56 | 41.06272 | 39.07841 | 30932 ft | 500 kts | 97° |
| 2026-04-16 15:57 | 41.05429 | 39.16930 | 30934 ft | 500 kts | 97° |
| 2026-04-16 15:57 | 41.04589 | 39.26087 | 30937 ft | 500 kts | 97° |
| 2026-04-16 15:58 | 41.03743 | 39.35233 | 30932 ft | 500 kts | 97° |
| 2026-04-16 15:58 | 41.02891 | 39.44359 | 30938 ft | 499 kts | 97° |
| 2026-04-16 15:59 | 41.01598 | 39.58047 | 30941 ft | 499 kts | 97° |
| 2026-04-16 15:59 | 41.00727 | 39.67166 | 30941 ft | 500 kts | 97° |
| 2026-04-16 16:00 | 40.99848 | 39.76300 | 30932 ft | 500 kts | 97° |
| 2026-04-16 16:00 | 40.99392 | 39.85463 | 30940 ft | 500 kts | 92° |
| 2026-04-16 16:01 | 40.99155 | 39.94661 | 30946 ft | 500 kts | 91° |
| 2026-04-16 16:01 | 40.98945 | 40.03858 | 30945 ft | 499 kts | 92° |
| 2026-04-16 16:02 | 40.98723 | 40.13024 | 30939 ft | 498 kts | 92° |
| 2026-04-16 16:02 | 40.98489 | 40.22177 | 30944 ft | 497 kts | 92° |
| 2026-04-16 16:03 | 40.98247 | 40.31261 | 30952 ft | 497 kts | 92° |
| 2026-04-16 16:03 | 40.97986 | 40.40398 | 30952 ft | 497 kts | 92° |
| 2026-04-16 16:04 | 40.97721 | 40.49544 | 30952 ft | 497 kts | 92° |
| 2026-04-16 16:04 | 40.97451 | 40.58679 | 30960 ft | 497 kts | 92° |
| 2026-04-16 16:05 | 40.97176 | 40.67810 | 30963 ft | 496 kts | 93° |
| 2026-04-16 16:05 | 40.96892 | 40.76931 | 30961 ft | 496 kts | 93° |
| 2026-04-16 16:06 | 40.96601 | 40.86049 | 30962 ft | 495 kts | 93° |
| 2026-04-16 16:06 | 40.96304 | 40.95144 | 30962 ft | 495 kts | 93° |
| 2026-04-16 16:07 | 40.95998 | 41.04244 | 30962 ft | 495 kts | 93° |
| 2026-04-16 16:07 | 40.95687 | 41.13337 | 30962 ft | 495 kts | 93° |
| 2026-04-16 16:08 | 40.95367 | 41.22423 | 30961 ft | 494 kts | 93° |
| 2026-04-16 16:08 | 40.95042 | 41.31494 | 30953 ft | 494 kts | 94° |
| 2026-04-16 16:09 | 40.94711 | 41.40520 | 30953 ft | 493 kts | 94° |
| 2026-04-16 16:09 | 40.94372 | 41.49575 | 30951 ft | 493 kts | 94° |
| 2026-04-16 16:10 | 40.94025 | 41.58633 | 30953 ft | 493 kts | 94° |
| 2026-04-16 16:10 | 40.93673 | 41.67684 | 30936 ft | 493 kts | 94° |
| 2026-04-16 16:11 | 40.93313 | 41.76745 | 30934 ft | 493 kts | 94° |
| 2026-04-16 16:11 | 40.92947 | 41.85806 | 30937 ft | 493 kts | 94° |
| 2026-04-16 16:12 | 40.92569 | 41.94855 | 30927 ft | 493 kts | 94° |
| 2026-04-16 16:12 | 40.92187 | 42.03908 | 30925 ft | 493 kts | 94° |
| 2026-04-16 16:13 | 40.91802 | 42.12950 | 30926 ft | 491 kts | 94° |
| 2026-04-16 16:13 | 40.91408 | 42.21962 | 30920 ft | 491 kts | 95° |
| 2026-04-16 16:14 | 40.91007 | 42.30964 | 30913 ft | 491 kts | 95° |
| 2026-04-16 16:14 | 40.90600 | 42.39932 | 30915 ft | 490 kts | 95° |
| 2026-04-16 16:15 | 40.90253 | 42.47406 | 30906 ft | 490 kts | 95° |
| 2026-04-16 16:15 | 40.89774 | 42.57636 | 30898 ft | 490 kts | 95° |
| 2026-04-16 16:16 | 40.89350 | 42.66570 | 30898 ft | 490 kts | 95° |
| 2026-04-16 16:16 | 40.88915 | 42.75553 | 30891 ft | 490 kts | 95° |
| 2026-04-16 16:17 | 40.88473 | 42.84533 | 30880 ft | 490 kts | 95° |
| 2026-04-16 16:17 | 40.88024 | 42.93514 | 30883 ft | 489 kts | 95° |
| 2026-04-16 16:18 | 40.87569 | 43.02483 | 30890 ft | 489 kts | 95° |
| 2026-04-16 16:18 | 40.87107 | 43.11458 | 30888 ft | 489 kts | 95° |
| 2026-04-16 16:19 | 40.86720 | 43.18910 | 30881 ft | 489 kts | 95° |
| 2026-04-16 16:19 | 40.86186 | 43.29012 | 30874 ft | 489 kts | 96° |
| 2026-04-16 16:20 | 40.85701 | 43.37978 | 30881 ft | 489 kts | 96° |
| 2026-04-16 16:20 | 40.85217 | 43.46841 | 30879 ft | 489 kts | 96° |
| 2026-04-16 16:21 | 40.84744 | 43.55379 | 30880 ft | 490 kts | 96° |
| 2026-04-16 16:21 | 40.84238 | 43.64362 | 30883 ft | 490 kts | 96° |
| 2026-04-16 16:22 | 40.83828 | 43.71831 | 30880 ft | 491 kts | 95° |
| 2026-04-16 16:22 | 40.83537 | 43.80534 | 30880 ft | 491 kts | 94° |
| 2026-04-16 16:23 | 40.83294 | 43.89552 | 30889 ft | 492 kts | 94° |
| 2026-04-16 16:23 | 40.83027 | 43.98307 | 30882 ft | 492 kts | 94° |
| 2026-04-16 16:24 | 40.82727 | 44.07200 | 30880 ft | 492 kts | 95° |
| 2026-04-16 16:24 | 40.82411 | 44.16140 | 30881 ft | 492 kts | 95° |
| 2026-04-16 16:25 | 40.82090 | 44.24976 | 30869 ft | 492 kts | 95° |
| 2026-04-16 16:25 | 40.81764 | 44.33839 | 30864 ft | 492 kts | 95° |
| 2026-04-16 16:26 | 40.81436 | 44.42651 | 30860 ft | 492 kts | 95° |
| 2026-04-16 16:26 | 40.81093 | 44.51664 | 30851 ft | 492 kts | 95° |
| 2026-04-16 16:27 | 40.80761 | 44.60243 | 30840 ft | 492 kts | 95° |
| 2026-04-16 16:27 | 40.80404 | 44.69237 | 30801 ft | 492 kts | 95° |
| 2026-04-16 16:28 | 40.80039 | 44.78188 | 30802 ft | 491 kts | 95° |
| 2026-04-16 16:28 | 40.79670 | 44.87181 | 30803 ft | 491 kts | 96° |
| 2026-04-16 16:29 | 40.79291 | 44.96186 | 30794 ft | 491 kts | 96° |
| 2026-04-16 16:29 | 40.78907 | 45.05129 | 30801 ft | 492 kts | 96° |
| 2026-04-16 16:30 | 40.78515 | 45.14144 | 30799 ft | 492 kts | 96° |
| 2026-04-16 16:30 | 40.78110 | 45.23156 | 30786 ft | 491 kts | 96° |
| 2026-04-16 16:31 | 40.77700 | 45.32136 | 30783 ft | 492 kts | 96° |
| 2026-04-16 16:31 | 40.77287 | 45.41154 | 30783 ft | 493 kts | 96° |
| 2026-04-16 16:32 | 40.77034 | 45.50203 | 30785 ft | 496 kts | 89° |
| 2026-04-16 16:32 | 40.77770 | 45.59265 | 30775 ft | 498 kts | 85° |
| 2026-04-16 16:33 | 40.78710 | 45.68328 | 30776 ft | 499 kts | 84° |
| 2026-04-16 16:33 | 40.79671 | 45.77381 | 30773 ft | 499 kts | 84° |
| 2026-04-16 16:34 | 40.80599 | 45.86352 | 30767 ft | 499 kts | 85° |
| 2026-04-16 16:34 | 40.81518 | 45.95425 | 30763 ft | 499 kts | 85° |
| 2026-04-16 16:35 | 40.82425 | 46.04495 | 30759 ft | 499 kts | 85° |
| 2026-04-16 16:35 | 40.83295 | 46.13240 | 30756 ft | 503 kts | 85° |
| 2026-04-16 16:36 | 40.84201 | 46.22408 | 30749 ft | 503 kts | 85° |
| 2026-04-16 16:36 | 40.85092 | 46.31477 | 30753 ft | 504 kts | 85° |
| 2026-04-16 16:37 | 40.85982 | 46.40643 | 30749 ft | 503 kts | 86° |
| 2026-04-16 16:37 | 40.86866 | 46.49821 | 30749 ft | 504 kts | 86° |
| 2026-04-16 16:38 | 40.87712 | 46.58650 | 30760 ft | 504 kts | 86° |
| 2026-04-16 16:38 | 40.88580 | 46.67841 | 30758 ft | 505 kts | 86° |
| 2026-04-16 16:39 | 40.89437 | 46.76992 | 30756 ft | 505 kts | 86° |
| 2026-04-16 16:39 | 40.90649 | 46.86004 | 30760 ft | 509 kts | 80° |
| 2026-04-16 16:40 | 40.92296 | 46.95118 | 30756 ft | 510 kts | 79° |
| 2026-04-16 16:40 | 40.93999 | 47.04231 | 30757 ft | 511 kts | 79° |
| 2026-04-16 16:41 | 40.95674 | 47.13227 | 30761 ft | 512 kts | 79° |
| 2026-04-16 16:41 | 40.97357 | 47.22374 | 30760 ft | 512 kts | 79° |
| 2026-04-16 16:42 | 40.99022 | 47.31492 | 30760 ft | 513 kts | 79° |
| 2026-04-16 16:42 | 41.00676 | 47.40608 | 30757 ft | 514 kts | 80° |
| 2026-04-16 16:43 | 41.02339 | 47.49816 | 30756 ft | 514 kts | 79° |
| 2026-04-16 16:43 | 41.03998 | 47.59024 | 30760 ft | 514 kts | 80° |
| 2026-04-16 16:44 | 41.05651 | 47.68260 | 30746 ft | 515 kts | 80° |
| 2026-04-16 16:44 | 41.07295 | 47.77490 | 30752 ft | 515 kts | 80° |
| 2026-04-16 16:45 | 41.08932 | 47.86727 | 30747 ft | 515 kts | 80° |
| 2026-04-16 16:45 | 41.10570 | 47.95953 | 30758 ft | 516 kts | 78° |
| 2026-04-16 16:46 | 41.12858 | 48.05016 | 30757 ft | 519 kts | 72° |
| 2026-04-16 16:46 | 41.15360 | 48.14040 | 30760 ft | 522 kts | 72° |
| 2026-04-16 16:47 | 41.17891 | 48.23082 | 30758 ft | 523 kts | 72° |
| 2026-04-16 16:47 | 41.20401 | 48.32134 | 30758 ft | 522 kts | 72° |
| 2026-04-16 16:48 | 41.22893 | 48.41179 | 30758 ft | 522 kts | 72° |
| 2026-04-16 16:48 | 41.25382 | 48.50242 | 30741 ft | 522 kts | 72° |
| 2026-04-16 16:49 | 41.27864 | 48.59317 | 30735 ft | 523 kts | 72° |
| 2026-04-16 16:49 | 41.30330 | 48.68355 | 30730 ft | 523 kts | 72° |
| 2026-04-16 16:50 | 41.32698 | 48.77088 | 30729 ft | 524 kts | 72° |
| 2026-04-16 16:50 | 41.35167 | 48.86222 | 30729 ft | 525 kts | 72° |
| 2026-04-16 16:51 | 41.37637 | 48.95370 | 30729 ft | 525 kts | 72° |
| 2026-04-16 16:51 | 41.40096 | 49.04536 | 30729 ft | 526 kts | 72° |
| 2026-04-16 16:52 | 41.42550 | 49.13726 | 30721 ft | 527 kts | 73° |
| 2026-04-16 16:52 | 41.44985 | 49.22872 | 30720 ft | 528 kts | 73° |
| 2026-04-16 16:53 | 41.47448 | 49.32159 | 30720 ft | 529 kts | 73° |
| 2026-04-16 16:53 | 41.49895 | 49.41417 | 30720 ft | 529 kts | 73° |
| 2026-04-16 16:54 | 41.52338 | 49.50690 | 30721 ft | 530 kts | 73° |
| 2026-04-16 16:54 | 41.54773 | 49.59981 | 30720 ft | 531 kts | 73° |
| 2026-04-16 16:55 | 41.57208 | 49.69293 | 30720 ft | 531 kts | 73° |
| 2026-04-16 16:55 | 41.59633 | 49.78606 | 30720 ft | 531 kts | 73° |
| 2026-04-16 16:56 | 41.62056 | 49.87942 | 30721 ft | 531 kts | 73° |
| 2026-04-16 16:56 | 41.64451 | 49.97211 | 30711 ft | 531 kts | 73° |
| 2026-04-16 16:57 | 41.68058 | 50.11244 | 30711 ft | 532 kts | 73° |
| 2026-04-16 16:58 | 41.70451 | 50.20609 | 30701 ft | 532 kts | 73° |
| 2026-04-16 16:58 | 41.72840 | 50.29970 | 30702 ft | 532 kts | 73° |
| 2026-04-16 16:59 | 41.75218 | 50.39348 | 30701 ft | 532 kts | 73° |
| 2026-04-16 16:59 | 41.77591 | 50.48730 | 30702 ft | 532 kts | 73° |
| 2026-04-16 17:00 | 41.79956 | 50.58123 | 30701 ft | 532 kts | 73° |
| 2026-04-16 17:00 | 41.82313 | 50.67510 | 30701 ft | 531 kts | 73° |
| 2026-04-16 17:01 | 41.84658 | 50.76886 | 30702 ft | 531 kts | 73° |
| 2026-04-16 17:01 | 41.86991 | 50.86263 | 30702 ft | 530 kts | 73° |
| 2026-04-16 17:02 | 41.89316 | 50.95643 | 30702 ft | 529 kts | 73° |
| 2026-04-16 17:02 | 41.91613 | 51.04949 | 30702 ft | 528 kts | 73° |
| 2026-04-16 17:03 | 41.93916 | 51.14311 | 30701 ft | 528 kts | 73° |
| 2026-04-16 17:03 | 41.96222 | 51.23725 | 30701 ft | 527 kts | 73° |
| 2026-04-16 17:04 | 41.98490 | 51.33024 | 30701 ft | 526 kts | 73° |
| 2026-04-16 17:04 | 42.00776 | 51.42366 | 30699 ft | 526 kts | 71° |
| 2026-04-16 17:05 | 42.04101 | 51.51105 | 30702 ft | 526 kts | 59° |
| 2026-04-16 17:05 | 42.08025 | 51.59390 | 30702 ft | 525 kts | 57° |
| 2026-04-16 17:06 | 42.12040 | 51.67610 | 30702 ft | 526 kts | 57° |
| 2026-04-16 17:06 | 42.16043 | 51.75841 | 30701 ft | 526 kts | 57° |
| 2026-04-16 17:07 | 42.20030 | 51.84108 | 30701 ft | 526 kts | 57° |
| 2026-04-16 17:07 | 42.23337 | 51.90994 | 30702 ft | 526 kts | 57° |
| 2026-04-16 17:08 | 42.27306 | 51.99289 | 30701 ft | 526 kts | 57° |
| 2026-04-16 17:08 | 42.31264 | 52.07585 | 30701 ft | 525 kts | 57° |
| 2026-04-16 17:09 | 42.35213 | 52.15883 | 30701 ft | 525 kts | 57° |
| 2026-04-16 17:09 | 42.39155 | 52.24185 | 30702 ft | 524 kts | 57° |
| 2026-04-16 17:10 | 42.43081 | 52.32475 | 30702 ft | 523 kts | 57° |
| 2026-04-16 17:10 | 42.46997 | 52.40767 | 30702 ft | 522 kts | 57° |
| 2026-04-16 17:11 | 42.50898 | 52.49057 | 30701 ft | 522 kts | 57° |
| 2026-04-16 17:11 | 42.54788 | 52.57344 | 30702 ft | 520 kts | 57° |
| 2026-04-16 17:12 | 42.58667 | 52.65628 | 30701 ft | 519 kts | 57° |
| 2026-04-16 17:12 | 42.62528 | 52.73899 | 30701 ft | 519 kts | 57° |
| 2026-04-16 17:13 | 42.66380 | 52.82172 | 30701 ft | 518 kts | 57° |
| 2026-04-16 17:13 | 42.70223 | 52.90445 | 30701 ft | 517 kts | 58° |
| 2026-04-16 17:14 | 42.74048 | 52.98707 | 30702 ft | 516 kts | 57° |
| 2026-04-16 17:14 | 42.77864 | 53.06967 | 30707 ft | 515 kts | 58° |
| 2026-04-16 17:15 | 42.81665 | 53.15219 | 30711 ft | 515 kts | 58° |
| 2026-04-16 17:15 | 42.85464 | 53.23494 | 30711 ft | 514 kts | 58° |
| 2026-04-16 17:16 | 42.89251 | 53.31765 | 30711 ft | 514 kts | 58° |
| 2026-04-16 17:16 | 42.93027 | 53.40033 | 30711 ft | 514 kts | 58° |
| 2026-04-16 17:17 | 42.96791 | 53.48299 | 30711 ft | 513 kts | 58° |
| 2026-04-16 17:17 | 43.00268 | 53.56793 | 30711 ft | 513 kts | 68° |
| 2026-04-16 17:18 | 43.01967 | 53.66128 | 30711 ft | 510 kts | 83° |
| 2026-04-16 17:18 | 43.02731 | 53.75833 | 30711 ft | 511 kts | 86° |
| 2026-04-16 17:19 | 43.03333 | 53.85509 | 30711 ft | 511 kts | 86° |
| 2026-04-16 17:19 | 43.03941 | 53.95178 | 30711 ft | 510 kts | 86° |
| 2026-04-16 17:20 | 43.04566 | 54.04831 | 30710 ft | 509 kts | 85° |
| 2026-04-16 17:20 | 43.05193 | 54.14463 | 30711 ft | 509 kts | 85° |
| 2026-04-16 17:21 | 43.05807 | 54.24031 | 30710 ft | 508 kts | 85° |
| 2026-04-16 17:21 | 43.06418 | 54.33666 | 30721 ft | 509 kts | 85° |
| 2026-04-16 17:22 | 43.07020 | 54.43308 | 30720 ft | 509 kts | 85° |
| 2026-04-16 17:22 | 43.07614 | 54.52949 | 30720 ft | 509 kts | 85° |
| 2026-04-16 17:23 | 43.08200 | 54.62599 | 30720 ft | 509 kts | 85° |
| 2026-04-16 17:23 | 43.08776 | 54.72249 | 30720 ft | 509 kts | 85° |
| 2026-04-16 17:24 | 43.09344 | 54.81893 | 30720 ft | 508 kts | 85° |
| 2026-04-16 17:24 | 43.09903 | 54.91523 | 30720 ft | 508 kts | 85° |
| 2026-04-16 17:25 | 43.10454 | 55.01160 | 30720 ft | 508 kts | 85° |
| 2026-04-16 17:25 | 43.11000 | 55.10810 | 30720 ft | 508 kts | 85° |
| 2026-04-16 17:26 | 43.11537 | 55.20452 | 30720 ft | 508 kts | 85° |
| 2026-04-16 17:26 | 43.12064 | 55.30093 | 30720 ft | 508 kts | 86° |
| 2026-04-16 17:27 | 43.12585 | 55.39749 | 30730 ft | 508 kts | 86° |
| 2026-04-16 17:27 | 43.13095 | 55.49402 | 30729 ft | 508 kts | 86° |
| 2026-04-16 17:28 | 43.13598 | 55.59055 | 30729 ft | 508 kts | 86° |
| 2026-04-16 17:28 | 43.14090 | 55.68628 | 30730 ft | 507 kts | 86° |
| 2026-04-16 17:29 | 43.14578 | 55.78269 | 30730 ft | 508 kts | 86° |
| 2026-04-16 17:29 | 43.15057 | 55.87904 | 30729 ft | 507 kts | 86° |
| 2026-04-16 17:30 | 43.15571 | 55.97544 | 30728 ft | 508 kts | 83° |
| 2026-04-16 17:30 | 43.17108 | 56.06963 | 30735 ft | 506 kts | 74° |
| 2026-04-16 17:31 | 43.19028 | 56.16231 | 30744 ft | 505 kts | 73° |
| 2026-04-16 17:31 | 43.21000 | 56.25473 | 30736 ft | 505 kts | 73° |
| 2026-04-16 17:32 | 43.22960 | 56.34729 | 30745 ft | 506 kts | 73° |
| 2026-04-16 17:32 | 43.24896 | 56.44000 | 30736 ft | 505 kts | 74° |
| 2026-04-16 17:33 | 43.26814 | 56.53259 | 30741 ft | 505 kts | 74° |
| 2026-04-16 17:33 | 43.28726 | 56.62522 | 30744 ft | 505 kts | 74° |
| 2026-04-16 17:34 | 43.30631 | 56.71793 | 30749 ft | 504 kts | 74° |
| 2026-04-16 17:34 | 43.32526 | 56.81061 | 30745 ft | 504 kts | 74° |
| 2026-04-16 17:35 | 43.34414 | 56.90319 | 30751 ft | 503 kts | 75° |
| 2026-04-16 17:35 | 43.36295 | 56.99589 | 30747 ft | 503 kts | 75° |
| 2026-04-16 17:36 | 43.38162 | 57.08846 | 30749 ft | 503 kts | 75° |
| 2026-04-16 17:36 | 43.40024 | 57.18117 | 30749 ft | 503 kts | 75° |
| 2026-04-16 17:37 | 43.41866 | 57.27333 | 30751 ft | 503 kts | 75° |
| 2026-04-16 17:37 | 43.43709 | 57.36598 | 30751 ft | 502 kts | 76° |
| 2026-04-16 17:38 | 43.45545 | 57.45864 | 30749 ft | 501 kts | 76° |
| 2026-04-16 17:38 | 43.47371 | 57.55122 | 30758 ft | 501 kts | 76° |
| 2026-04-16 17:39 | 43.49189 | 57.64387 | 30757 ft | 501 kts | 76° |
| 2026-04-16 17:39 | 43.50998 | 57.73645 | 30758 ft | 500 kts | 76° |
| 2026-04-16 17:40 | 43.52796 | 57.82897 | 30754 ft | 500 kts | 77° |
| 2026-04-16 17:40 | 43.54586 | 57.92155 | 30761 ft | 499 kts | 77° |
| 2026-04-16 17:41 | 43.56367 | 58.01409 | 30766 ft | 499 kts | 77° |
| 2026-04-16 17:41 | 43.58141 | 58.10656 | 30767 ft | 499 kts | 77° |
| 2026-04-16 17:42 | 43.59910 | 58.19923 | 30769 ft | 499 kts | 77° |
| 2026-04-16 17:42 | 43.61668 | 58.29193 | 30776 ft | 500 kts | 77° |
| 2026-04-16 17:43 | 43.63418 | 58.38469 | 30777 ft | 499 kts | 77° |
| 2026-04-16 17:43 | 43.65134 | 58.47764 | 30776 ft | 500 kts | 78° |
| 2026-04-16 17:44 | 43.66831 | 58.57071 | 30777 ft | 500 kts | 78° |
| 2026-04-16 17:44 | 43.68516 | 58.66326 | 30776 ft | 500 kts | 78° |
| 2026-04-16 17:45 | 43.70207 | 58.75648 | 30777 ft | 500 kts | 78° |
| 2026-04-16 17:45 | 43.71895 | 58.84990 | 30776 ft | 501 kts | 78° |
| 2026-04-16 17:46 | 43.73575 | 58.94342 | 30775 ft | 501 kts | 78° |
| 2026-04-16 17:46 | 43.75245 | 59.03691 | 30775 ft | 501 kts | 79° |
| 2026-04-16 17:47 | 43.76945 | 59.13045 | 30776 ft | 502 kts | 78° |
| 2026-04-16 17:47 | 43.78661 | 59.22406 | 30776 ft | 503 kts | 79° |
| 2026-04-16 17:48 | 43.80372 | 59.31801 | 30776 ft | 503 kts | 79° |
| 2026-04-16 17:48 | 43.82069 | 59.41192 | 30775 ft | 503 kts | 79° |
| 2026-04-16 17:49 | 43.83759 | 59.50596 | 30776 ft | 504 kts | 79° |
| 2026-04-16 17:49 | 43.85444 | 59.60021 | 30776 ft | 504 kts | 79° |
| 2026-04-16 17:50 | 43.87121 | 59.69455 | 30776 ft | 504 kts | 80° |
| 2026-04-16 17:50 | 43.88775 | 59.78896 | 30776 ft | 504 kts | 80° |
| 2026-04-16 17:51 | 43.90393 | 59.88357 | 30775 ft | 505 kts | 81° |
| 2026-04-16 17:51 | 43.92004 | 59.97831 | 30775 ft | 505 kts | 81° |
| 2026-04-16 17:52 | 43.93616 | 60.07314 | 30785 ft | 505 kts | 81° |
| 2026-04-16 17:52 | 43.95222 | 60.16790 | 30785 ft | 505 kts | 81° |
| 2026-04-16 17:53 | 43.96820 | 60.26271 | 30784 ft | 505 kts | 81° |
| 2026-04-16 17:53 | 43.98410 | 60.35762 | 30784 ft | 504 kts | 81° |
| 2026-04-16 17:54 | 43.99988 | 60.45240 | 30786 ft | 504 kts | 81° |
| 2026-04-16 17:54 | 44.01560 | 60.54734 | 30787 ft | 504 kts | 81° |
| 2026-04-16 17:55 | 44.02860 | 60.62622 | 30784 ft | 504 kts | 81° |
| 2026-04-16 17:55 | 44.04418 | 60.72126 | 30791 ft | 505 kts | 81° |
| 2026-04-16 17:56 | 44.05969 | 60.81634 | 30801 ft | 505 kts | 81° |
| 2026-04-16 17:56 | 44.08287 | 60.95929 | 30794 ft | 505 kts | 81° |
| 2026-04-16 17:57 | 44.09817 | 61.05449 | 30793 ft | 505 kts | 81° |
| 2026-04-16 17:57 | 44.11339 | 61.14976 | 30799 ft | 504 kts | 81° |
| 2026-04-16 17:58 | 44.12853 | 61.24507 | 30800 ft | 504 kts | 81° |
| 2026-04-16 17:58 | 44.14122 | 61.34061 | 30807 ft | 499 kts | 88° |
| 2026-04-16 17:59 | 44.14666 | 61.43609 | 30806 ft | 497 kts | 90° |
| 2026-04-16 17:59 | 44.15082 | 61.53210 | 30801 ft | 497 kts | 90° |
| 2026-04-16 18:00 | 44.15471 | 61.62816 | 30809 ft | 497 kts | 90° |
| 2026-04-16 18:00 | 44.15874 | 61.72410 | 30808 ft | 496 kts | 90° |
| 2026-04-16 18:01 | 44.16272 | 61.81990 | 30809 ft | 495 kts | 90° |
| 2026-04-16 18:01 | 44.16664 | 61.91565 | 30815 ft | 495 kts | 90° |
| 2026-04-16 18:02 | 44.17047 | 62.01147 | 30810 ft | 495 kts | 90° |
| 2026-04-16 18:02 | 44.17423 | 62.10719 | 30822 ft | 495 kts | 90° |
| 2026-04-16 18:03 | 44.17790 | 62.20291 | 30819 ft | 495 kts | 90° |
| 2026-04-16 18:03 | 44.18149 | 62.29856 | 30821 ft | 495 kts | 90° |
| 2026-04-16 18:04 | 44.18494 | 62.39437 | 30821 ft | 495 kts | 91° |
| 2026-04-16 18:04 | 44.18820 | 62.49025 | 30823 ft | 495 kts | 91° |
| 2026-04-16 18:05 | 44.19139 | 62.58611 | 30826 ft | 496 kts | 91° |
| 2026-04-16 18:05 | 44.19452 | 62.68192 | 30820 ft | 495 kts | 91° |
| 2026-04-16 18:06 | 44.19758 | 62.77792 | 30831 ft | 495 kts | 91° |
| 2026-04-16 18:06 | 44.20055 | 62.87378 | 30833 ft | 495 kts | 91° |
| 2026-04-16 18:07 | 44.20344 | 62.96970 | 30833 ft | 495 kts | 92° |
| 2026-04-16 18:07 | 44.20626 | 63.06563 | 30833 ft | 495 kts | 92° |
| 2026-04-16 18:08 | 44.20899 | 63.16150 | 30833 ft | 495 kts | 92° |
| 2026-04-16 18:08 | 44.21102 | 63.25727 | 30832 ft | 494 kts | 93° |
| 2026-04-16 18:09 | 44.21194 | 63.35288 | 30839 ft | 493 kts | 94° |
| 2026-04-16 18:09 | 44.21281 | 63.44833 | 30842 ft | 492 kts | 94° |
| 2026-04-16 18:10 | 44.21376 | 63.54371 | 30842 ft | 492 kts | 94° |
| 2026-04-16 18:10 | 44.21471 | 63.63894 | 30840 ft | 491 kts | 94° |
| 2026-04-16 18:11 | 44.21561 | 63.73406 | 30841 ft | 491 kts | 94° |
| 2026-04-16 18:11 | 44.21642 | 63.82911 | 30842 ft | 490 kts | 94° |
| 2026-04-16 18:12 | 44.21715 | 63.92419 | 30842 ft | 490 kts | 94° |
| 2026-04-16 18:12 | 44.21781 | 64.01914 | 30840 ft | 490 kts | 94° |
| 2026-04-16 18:13 | 44.21839 | 64.11333 | 30850 ft | 489 kts | 94° |
| 2026-04-16 18:13 | 44.21918 | 64.20864 | 30851 ft | 490 kts | 92° |
| 2026-04-16 18:14 | 44.22343 | 64.30324 | 30851 ft | 492 kts | 90° |
| 2026-04-16 18:14 | 44.22865 | 64.39837 | 30851 ft | 492 kts | 90° |
| 2026-04-16 18:15 | 44.23333 | 64.49333 | 30850 ft | 492 kts | 91° |
| 2026-04-16 18:15 | 44.23757 | 64.58854 | 30859 ft | 491 kts | 91° |
| 2026-04-16 18:16 | 44.24161 | 64.68353 | 30861 ft | 490 kts | 91° |
| 2026-04-16 18:16 | 44.24559 | 64.77832 | 30861 ft | 490 kts | 92° |
| 2026-04-16 18:17 | 44.24950 | 64.87310 | 30860 ft | 490 kts | 92° |
| 2026-04-16 18:17 | 44.25301 | 64.96786 | 30862 ft | 488 kts | 92° |
| 2026-04-16 18:18 | 44.25639 | 65.06216 | 30862 ft | 487 kts | 92° |
| 2026-04-16 18:18 | 44.25975 | 65.15641 | 30861 ft | 485 kts | 93° |
| 2026-04-16 18:19 | 44.26304 | 65.25035 | 30860 ft | 484 kts | 93° |
| 2026-04-16 18:19 | 44.26625 | 65.34390 | 30857 ft | 483 kts | 93° |
| 2026-04-16 18:20 | 44.26941 | 65.43734 | 30863 ft | 481 kts | 93° |
| 2026-04-16 18:20 | 44.27245 | 65.53045 | 30857 ft | 480 kts | 94° |
| 2026-04-16 18:21 | 44.27541 | 65.62343 | 30859 ft | 479 kts | 94° |
| 2026-04-16 18:21 | 44.27830 | 65.71608 | 30859 ft | 478 kts | 94° |
| 2026-04-16 18:22 | 44.28108 | 65.80859 | 30858 ft | 476 kts | 94° |
| 2026-04-16 18:22 | 44.28379 | 65.90099 | 30864 ft | 476 kts | 94° |
| 2026-04-16 18:23 | 44.28642 | 65.99316 | 30857 ft | 475 kts | 94° |
| 2026-04-16 18:23 | 44.28898 | 66.08544 | 30859 ft | 475 kts | 94° |
| 2026-04-16 18:24 | 44.29146 | 66.17764 | 30857 ft | 476 kts | 94° |
| 2026-04-16 18:24 | 44.29386 | 66.26991 | 30861 ft | 476 kts | 94° |
| 2026-04-16 18:25 | 44.29621 | 66.36233 | 30859 ft | 477 kts | 94° |
| 2026-04-16 18:25 | 44.29847 | 66.45493 | 30862 ft | 478 kts | 95° |
| 2026-04-16 18:26 | 44.29942 | 66.54756 | 30864 ft | 478 kts | 96° |
| 2026-04-16 18:26 | 44.29976 | 66.64040 | 30858 ft | 479 kts | 96° |
| 2026-04-16 18:27 | 44.30022 | 66.73346 | 30864 ft | 480 kts | 95° |
| 2026-04-16 18:27 | 44.30073 | 66.82691 | 30860 ft | 482 kts | 95° |
| 2026-04-16 18:28 | 44.30121 | 66.92064 | 30862 ft | 484 kts | 95° |
| 2026-04-16 18:28 | 44.30163 | 67.01461 | 30864 ft | 485 kts | 95° |
| 2026-04-16 18:29 | 44.30198 | 67.10881 | 30855 ft | 486 kts | 95° |
| 2026-04-16 18:29 | 44.30225 | 67.20275 | 30857 ft | 488 kts | 95° |
| 2026-04-16 18:30 | 44.30243 | 67.29753 | 30870 ft | 489 kts | 95° |
| 2026-04-16 18:30 | 44.30254 | 67.39251 | 30864 ft | 490 kts | 95° |
| 2026-04-16 18:31 | 44.30258 | 67.48780 | 30869 ft | 491 kts | 95° |
| 2026-04-16 18:31 | 44.30352 | 67.58316 | 30869 ft | 494 kts | 91° |
| 2026-04-16 18:32 | 44.30922 | 67.67912 | 30870 ft | 497 kts | 89° |
| 2026-04-16 18:32 | 44.31558 | 67.77502 | 30872 ft | 496 kts | 90° |
| 2026-04-16 18:33 | 44.32112 | 67.87097 | 30877 ft | 496 kts | 90° |
| 2026-04-16 18:33 | 44.32611 | 67.96717 | 30878 ft | 496 kts | 91° |
| 2026-04-16 18:34 | 44.33096 | 68.06331 | 30873 ft | 496 kts | 90° |
| 2026-04-16 18:34 | 44.33573 | 68.15938 | 30874 ft | 496 kts | 91° |
| 2026-04-16 18:35 | 44.34047 | 68.25553 | 30877 ft | 496 kts | 91° |
| 2026-04-16 18:35 | 44.34514 | 68.35176 | 30880 ft | 496 kts | 91° |
| 2026-04-16 18:36 | 44.34970 | 68.44784 | 30880 ft | 496 kts | 91° |
| 2026-04-16 18:36 | 44.35415 | 68.54347 | 30885 ft | 496 kts | 91° |
| 2026-04-16 18:37 | 44.35858 | 68.64028 | 30879 ft | 496 kts | 91° |
| 2026-04-16 18:37 | 44.36287 | 68.73572 | 30880 ft | 496 kts | 91° |
| 2026-04-16 18:38 | 44.36712 | 68.83206 | 30894 ft | 496 kts | 91° |
| 2026-04-16 18:38 | 44.36762 | 68.92786 | 30886 ft | 489 kts | 101° |
| 2026-04-16 18:39 | 44.35818 | 69.02174 | 30887 ft | 487 kts | 104° |
| 2026-04-16 18:39 | 44.34700 | 69.11495 | 30890 ft | 487 kts | 104° |
| 2026-04-16 18:40 | 44.33551 | 69.20813 | 30893 ft | 486 kts | 104° |
| 2026-04-16 18:40 | 44.32414 | 69.30117 | 30880 ft | 487 kts | 104° |
| 2026-04-16 18:41 | 44.31276 | 69.39441 | 30876 ft | 487 kts | 104° |
| 2026-04-16 18:41 | 44.30318 | 69.47241 | 30873 ft | 488 kts | 104° |
| 2026-04-16 18:42 | 44.29177 | 69.56507 | 30876 ft | 487 kts | 104° |
| 2026-04-16 18:42 | 44.28020 | 69.65819 | 30877 ft | 487 kts | 104° |
| 2026-04-16 18:43 | 44.26853 | 69.75131 | 30875 ft | 488 kts | 104° |
| 2026-04-16 18:43 | 44.25678 | 69.84448 | 30874 ft | 488 kts | 105° |
| 2026-04-16 18:44 | 44.24495 | 69.93772 | 30876 ft | 488 kts | 105° |
| 2026-04-16 18:44 | 44.23305 | 70.03072 | 30878 ft | 488 kts | 105° |
| 2026-04-16 18:45 | 44.22108 | 70.12377 | 30881 ft | 488 kts | 105° |
| 2026-04-16 18:45 | 44.20900 | 70.21698 | 30877 ft | 488 kts | 105° |
| 2026-04-16 18:46 | 44.19689 | 70.31001 | 30878 ft | 488 kts | 105° |
| 2026-04-16 18:46 | 44.18470 | 70.40293 | 30879 ft | 488 kts | 105° |
| 2026-04-16 18:47 | 44.17248 | 70.49588 | 30877 ft | 488 kts | 105° |
| 2026-04-16 18:47 | 44.16022 | 70.58879 | 30879 ft | 488 kts | 105° |
| 2026-04-16 18:48 | 44.14787 | 70.68163 | 30881 ft | 488 kts | 105° |
| 2026-04-16 18:48 | 44.13544 | 70.77448 | 30878 ft | 488 kts | 105° |
| 2026-04-16 18:49 | 44.12293 | 70.86737 | 30882 ft | 488 kts | 104° |
| 2026-04-16 18:49 | 44.11034 | 70.96027 | 30873 ft | 488 kts | 104° |
| 2026-04-16 18:50 | 44.09782 | 71.05246 | 30884 ft | 489 kts | 104° |
| 2026-04-16 18:50 | 44.08508 | 71.14536 | 30884 ft | 489 kts | 104° |
| 2026-04-16 18:51 | 44.07228 | 71.23815 | 30884 ft | 489 kts | 104° |
| 2026-04-16 18:51 | 44.05940 | 71.33106 | 30869 ft | 489 kts | 104° |
| 2026-04-16 18:52 | 44.04643 | 71.42394 | 30868 ft | 489 kts | 104° |
| 2026-04-16 18:52 | 44.03342 | 71.51669 | 30866 ft | 489 kts | 104° |
| 2026-04-16 18:53 | 44.02033 | 71.60951 | 30870 ft | 489 kts | 104° |
| 2026-04-16 18:53 | 44.00714 | 71.70229 | 30873 ft | 489 kts | 104° |
| 2026-04-16 18:54 | 43.99389 | 71.79503 | 30880 ft | 489 kts | 104° |
| 2026-04-16 18:54 | 43.98209 | 71.88817 | 30883 ft | 492 kts | 98° |
| 2026-04-16 18:55 | 43.97637 | 71.98286 | 30876 ft | 492 kts | 96° |
| 2026-04-16 18:55 | 43.97171 | 72.07776 | 30874 ft | 493 kts | 96° |
| 2026-04-16 18:56 | 43.96711 | 72.17265 | 30882 ft | 493 kts | 96° |
| 2026-04-16 18:56 | 43.96230 | 72.26743 | 30879 ft | 493 kts | 96° |
| 2026-04-16 18:57 | 43.95736 | 72.36225 | 30883 ft | 492 kts | 97° |
| 2026-04-16 18:58 | 43.94982 | 72.50379 | 30881 ft | 493 kts | 97° |
| 2026-04-16 18:58 | 43.94467 | 72.59854 | 30882 ft | 493 kts | 97° |
| 2026-04-16 18:59 | 43.93946 | 72.69334 | 30882 ft | 492 kts | 97° |
| 2026-04-16 18:59 | 43.93417 | 72.78811 | 30872 ft | 493 kts | 97° |
| 2026-04-16 19:00 | 43.92878 | 72.88283 | 30878 ft | 494 kts | 97° |
| 2026-04-16 19:00 | 43.92329 | 72.97773 | 30877 ft | 494 kts | 97° |
| 2026-04-16 19:01 | 43.91778 | 73.07215 | 30882 ft | 494 kts | 97° |
| 2026-04-16 19:01 | 43.91214 | 73.16722 | 30878 ft | 495 kts | 97° |
| 2026-04-16 19:02 | 43.90641 | 73.26241 | 30877 ft | 496 kts | 97° |
| 2026-04-16 19:02 | 43.90061 | 73.35774 | 30878 ft | 497 kts | 97° |
| 2026-04-16 19:03 | 43.89470 | 73.45324 | 30877 ft | 497 kts | 97° |
| 2026-04-16 19:03 | 43.88871 | 73.54881 | 30877 ft | 498 kts | 97° |
| 2026-04-16 19:04 | 43.88265 | 73.64450 | 30875 ft | 499 kts | 97° |
| 2026-04-16 19:04 | 43.87648 | 73.74044 | 30881 ft | 500 kts | 97° |
| 2026-04-16 19:05 | 43.87022 | 73.83645 | 30883 ft | 500 kts | 97° |
| 2026-04-16 19:05 | 43.86391 | 73.93182 | 30875 ft | 501 kts | 97° |
| 2026-04-16 19:06 | 43.85749 | 74.02791 | 30878 ft | 501 kts | 98° |
| 2026-04-16 19:06 | 43.85103 | 74.12329 | 30874 ft | 501 kts | 98° |
| 2026-04-16 19:07 | 43.84441 | 74.21998 | 30873 ft | 501 kts | 98° |
| 2026-04-16 19:07 | 43.83655 | 74.31499 | 30880 ft | 499 kts | 103° |
| 2026-04-16 19:08 | 43.82257 | 74.40893 | 30878 ft | 498 kts | 104° |
| 2026-04-16 19:08 | 43.80747 | 74.50237 | 30884 ft | 497 kts | 105° |
| 2026-04-16 19:09 | 43.79201 | 74.59553 | 30864 ft | 495 kts | 105° |
| 2026-04-16 19:09 | 43.77674 | 74.68829 | 30865 ft | 491 kts | 104° |
| 2026-04-16 19:10 | 43.76174 | 74.78129 | 30864 ft | 497 kts | 105° |
| 2026-04-16 19:10 | 43.74637 | 74.87425 | 30862 ft | 496 kts | 105° |
| 2026-04-16 19:11 | 43.73096 | 74.96726 | 30865 ft | 497 kts | 105° |
| 2026-04-16 19:11 | 43.71552 | 75.06020 | 30870 ft | 496 kts | 104° |
| 2026-04-16 19:12 | 43.69998 | 75.15306 | 30863 ft | 496 kts | 104° |
| 2026-04-16 19:12 | 43.68436 | 75.24584 | 30859 ft | 495 kts | 105° |
| 2026-04-16 19:13 | 43.66865 | 75.33844 | 30855 ft | 497 kts | 104° |
| 2026-04-16 19:13 | 43.65288 | 75.43086 | 30862 ft | 496 kts | 105° |
| 2026-04-16 19:14 | 43.63699 | 75.52358 | 30850 ft | 499 kts | 104° |
| 2026-04-16 19:14 | 43.62113 | 75.61612 | 30851 ft | 498 kts | 104° |
| 2026-04-16 19:15 | 43.60519 | 75.70908 | 30852 ft | 497 kts | 104° |
| 2026-04-16 19:15 | 43.58920 | 75.80206 | 30845 ft | 500 kts | 104° |
| 2026-04-16 19:16 | 43.57382 | 75.89150 | 30840 ft | 499 kts | 104° |
| 2026-04-16 19:16 | 43.55784 | 75.98458 | 30841 ft | 499 kts | 104° |
| 2026-04-16 19:17 | 43.54241 | 76.07493 | 30842 ft | 501 kts | 104° |
| 2026-04-16 19:17 | 43.52618 | 76.16831 | 30832 ft | 500 kts | 104° |
| 2026-04-16 19:18 | 43.51015 | 76.26149 | 30832 ft | 499 kts | 104° |
| 2026-04-16 19:18 | 43.49421 | 76.35440 | 30832 ft | 499 kts | 104° |
| 2026-04-16 19:19 | 43.47824 | 76.44769 | 30831 ft | 500 kts | 104° |
| 2026-04-16 19:19 | 43.46297 | 76.53723 | 30833 ft | 499 kts | 104° |
| 2026-04-16 19:20 | 43.44718 | 76.63011 | 30833 ft | 499 kts | 104° |
| 2026-04-16 19:20 | 43.43140 | 76.72309 | 30832 ft | 499 kts | 104° |
| 2026-04-16 19:21 | 43.41582 | 76.81496 | 30832 ft | 499 kts | 104° |
| 2026-04-16 19:21 | 43.40006 | 76.90797 | 30831 ft | 499 kts | 104° |
| 2026-04-16 19:22 | 43.38432 | 77.00094 | 30832 ft | 499 kts | 104° |
| 2026-04-16 19:22 | 43.36867 | 77.09323 | 30832 ft | 499 kts | 104° |
| 2026-04-16 19:23 | 43.35290 | 77.18666 | 30830 ft | 502 kts | 104° |
| 2026-04-16 19:23 | 43.33715 | 77.27990 | 30833 ft | 501 kts | 104° |
| 2026-04-16 19:24 | 43.32139 | 77.37315 | 30832 ft | 501 kts | 104° |
| 2026-04-16 19:24 | 43.30561 | 77.46637 | 30821 ft | 502 kts | 104° |
| 2026-04-16 19:25 | 43.28980 | 77.55980 | 30825 ft | 502 kts | 104° |
| 2026-04-16 19:25 | 43.27403 | 77.65318 | 30819 ft | 502 kts | 104° |
| 2026-04-16 19:26 | 43.25824 | 77.74658 | 30820 ft | 503 kts | 104° |
| 2026-04-16 19:26 | 43.24244 | 77.84004 | 30827 ft | 503 kts | 104° |
| 2026-04-16 19:27 | 43.22663 | 77.93351 | 30827 ft | 502 kts | 104° |
| 2026-04-16 19:27 | 43.21098 | 78.02697 | 30830 ft | 503 kts | 104° |
| 2026-04-16 19:28 | 43.19504 | 78.12046 | 30840 ft | 505 kts | 104° |
| 2026-04-16 19:28 | 43.17905 | 78.21427 | 30842 ft | 506 kts | 104° |
| 2026-04-16 19:29 | 43.16578 | 78.29221 | 30842 ft | 505 kts | 104° |
| 2026-04-16 19:29 | 43.14715 | 78.40172 | 30841 ft | 505 kts | 104° |
| 2026-04-16 19:30 | 43.13398 | 78.47947 | 30842 ft | 505 kts | 104° |
| 2026-04-16 19:30 | 43.11811 | 78.57318 | 30851 ft | 505 kts | 103° |
| 2026-04-16 19:31 | 43.10225 | 78.66675 | 30852 ft | 505 kts | 103° |
| 2026-04-16 19:31 | 43.08639 | 78.76032 | 30850 ft | 505 kts | 103° |
| 2026-04-16 19:32 | 43.07049 | 78.85390 | 30852 ft | 505 kts | 103° |
| 2026-04-16 19:32 | 43.06264 | 78.90019 | 30854 ft | 491 kts | 103° |
| 2026-04-16 19:32 | 43.05508 | 78.94479 | 30862 ft | 473 kts | 103° |
| 2026-04-16 19:32 | 43.04778 | 78.98784 | 30861 ft | 456 kts | 103° |
| 2026-04-16 19:33 | 43.04076 | 79.02921 | 30857 ft | 439 kts | 103° |
| 2026-04-16 19:33 | 43.03399 | 79.06908 | 30861 ft | 423 kts | 103° |
| 2026-04-16 19:33 | 43.02748 | 79.10748 | 30858 ft | 407 kts | 103° |
| 2026-04-16 19:33 | 43.02120 | 79.14449 | 30854 ft | 392 kts | 103° |
| 2026-04-16 19:34 | 43.01518 | 79.18003 | 30850 ft | 376 kts | 103° |
| 2026-04-16 19:34 | 43.00940 | 79.21419 | 30847 ft | 361 kts | 103° |
| 2026-04-16 19:34 | 43.00394 | 79.24649 | 30849 ft | 346 kts | 103° |
| 2026-04-16 19:34 | 42.99865 | 79.27780 | 30846 ft | 330 kts | 103° |
| 2026-04-16 19:35 | 42.99362 | 79.30758 | 30845 ft | 314 kts | 103° |
| 2026-04-16 19:35 | 42.98885 | 79.33587 | 30842 ft | 297 kts | 104° |
| 2026-04-16 19:35 | 42.98437 | 79.36247 | 30836 ft | 277 kts | 103° |
| 2026-04-16 19:35 | 42.98022 | 79.38713 | 30829 ft | 255 kts | 103° |
| 2026-04-16 19:36 | 42.97643 | 79.40976 | 30801 ft | 227 kts | 103° |
| 2026-04-16 19:36 | 42.97315 | 79.42899 | 30495 ft | 201 kts | 106° |
| 2026-04-16 19:36 | 42.96803 | 79.44625 | 28145 ft | 156 kts | 94° |
| 2026-04-16 19:36 | 42.96362 | 79.45466 | 21577 ft | 3 kts | 345° |
| 2026-04-16 19:37 | 42.96468 | 79.45720 | 13854 ft | 23 kts | 290° |
| 2026-04-16 19:37 | 42.96486 | 79.45839 | 6867 ft | 32 kts | 319° |
| 2026-04-16 19:37 | 42.96449 | 79.45543 | 6068 ft | 1 kts | 225° |
| 2026-04-16 19:37 | 42.96436 | 79.45560 | 6064 ft | 3 kts | 225° |
| 2026-04-16 19:38 | 42.96427 | 79.45572 | 6066 ft | 4 kts | 225° |